createdAt,value
2018-07-06T00:01:14.047Z,17.30
2018-07-06T00:04:00.513Z,17.49
2018-07-06T00:06:47.234Z,17.35
2018-07-06T00:09:33.749Z,17.34
2018-07-06T00:12:20.350Z,17.42
2018-07-06T00:15:07.243Z,17.36
2018-07-06T00:17:53.641Z,17.32
2018-07-06T00:20:40.447Z,17.27
2018-07-06T00:23:26.950Z,17.38
2018-07-06T00:26:13.422Z,17.16
2018-07-06T00:29:00.073Z,17.17
2018-07-06T00:31:46.549Z,17.22
2018-07-06T00:34:33.075Z,17.30
2018-07-06T00:37:19.729Z,17.34
2018-07-06T00:40:06.295Z,17.39
2018-07-06T00:42:53.025Z,17.32
2018-07-06T00:45:40.013Z,17.21
2018-07-06T00:48:26.573Z,17.22
2018-07-06T00:51:13.089Z,17.24
2018-07-06T00:53:59.783Z,17.25
2018-07-06T00:56:46.500Z,17.35
2018-07-06T00:59:32.891Z,17.35
2018-07-06T01:02:19.508Z,17.31
2018-07-06T01:05:06.083Z,17.31
2018-07-06T01:08:16.106Z,17.30
2018-07-06T01:11:02.577Z,17.30
2018-07-06T01:13:49.282Z,17.35
2018-07-06T01:16:35.755Z,17.27
2018-07-06T01:19:22.457Z,17.12
2018-07-06T01:22:09.271Z,17.08
2018-07-06T01:24:55.893Z,17.13
2018-07-06T01:27:42.639Z,17.11
2018-07-06T01:30:29.069Z,17.09
2018-07-06T01:33:15.699Z,17.20
2018-07-06T01:36:02.126Z,17.18
2018-07-06T01:38:48.733Z,17.15
2018-07-06T01:41:35.401Z,17.14
2018-07-06T01:44:22.025Z,17.21
2018-07-06T01:47:08.443Z,17.18
2018-07-06T01:49:55.047Z,17.16
2018-07-06T01:52:41.574Z,17.09
2018-07-06T01:55:28.376Z,17.12
2018-07-06T01:58:15.152Z,17.15
2018-07-06T02:01:01.525Z,17.06
2018-07-06T02:03:48.266Z,17.07
2018-07-06T02:06:34.820Z,17.00
2018-07-06T02:09:21.157Z,16.92
2018-07-06T02:12:07.577Z,16.99
2018-07-06T02:14:54.072Z,16.97
2018-07-06T02:17:40.652Z,16.99
2018-07-06T02:20:27.314Z,17.02
2018-07-06T02:23:13.959Z,17.12
2018-07-06T02:26:00.798Z,17.05
2018-07-06T02:28:47.417Z,17.07
2018-07-06T02:31:33.986Z,17.03
2018-07-06T02:34:20.638Z,16.99
2018-07-06T02:37:07.466Z,16.86
2018-07-06T02:39:54.068Z,16.87
2018-07-06T02:42:40.622Z,16.83
2018-07-06T02:45:27.264Z,16.73
2018-07-06T02:48:14.615Z,16.69
2018-07-06T02:51:01.352Z,16.64
2018-07-06T02:53:47.965Z,16.60
2018-07-06T02:56:34.489Z,16.58
2018-07-06T02:59:21.264Z,16.68
2018-07-06T03:02:08.083Z,16.76
2018-07-06T03:04:54.797Z,16.75
2018-07-06T03:07:41.294Z,16.76
2018-07-06T03:10:28.105Z,16.74
2018-07-06T03:13:14.560Z,16.77
2018-07-06T03:16:01.168Z,16.74
2018-07-06T03:18:47.626Z,16.68
2018-07-06T03:21:34.233Z,16.61
2018-07-06T03:24:20.903Z,16.55
2018-07-06T03:27:07.562Z,16.56
2018-07-06T03:29:48.323Z,16.59
2018-07-06T03:32:34.906Z,16.57
2018-07-06T03:35:21.361Z,16.57
2018-07-06T03:38:07.839Z,16.60
2018-07-06T03:40:54.481Z,16.58
2018-07-06T03:43:41.072Z,16.60
2018-07-06T03:46:27.668Z,16.58
2018-07-06T03:49:14.900Z,16.57
2018-07-06T03:51:55.439Z,16.50
2018-07-06T03:54:42.116Z,16.54
2018-07-06T03:57:28.602Z,16.54
2018-07-06T04:00:14.952Z,16.56
2018-07-06T04:06:37.937Z,16.51
2018-07-06T04:09:24.480Z,16.52
2018-07-06T04:12:11.064Z,16.48
2018-07-06T04:14:57.657Z,16.48
2018-07-06T04:17:44.140Z,16.44
2018-07-06T04:20:30.796Z,16.43
2018-07-06T04:23:17.404Z,16.45
2018-07-06T04:26:03.900Z,16.43
2018-07-06T04:28:52.518Z,16.41
2018-07-06T04:31:39.088Z,16.43
2018-07-06T04:34:25.459Z,16.41
2018-07-06T04:37:11.862Z,16.44
2018-07-06T04:39:58.719Z,16.51
2018-07-06T04:42:45.132Z,16.55
2018-07-06T04:45:31.560Z,16.59
2018-07-06T04:48:18.125Z,16.59
2018-07-06T04:51:04.784Z,16.67
2018-07-06T04:53:51.559Z,16.65
2018-07-06T04:56:37.986Z,16.64
2018-07-06T04:59:24.492Z,16.70
2018-07-06T05:02:11.188Z,16.68
2018-07-06T05:04:57.522Z,16.65
2018-07-06T05:07:44.169Z,16.74
2018-07-06T05:10:31.016Z,16.77
2018-07-06T05:13:18.532Z,16.81
2018-07-06T05:16:04.958Z,16.78
2018-07-06T05:18:51.304Z,16.83
2018-07-06T05:21:37.800Z,16.78
2018-07-06T05:24:24.566Z,16.68
2018-07-06T05:27:11.220Z,16.72
2018-07-06T05:29:57.646Z,16.76
2018-07-06T05:32:43.990Z,16.81
2018-07-06T05:35:30.503Z,16.79
2018-07-06T05:38:16.768Z,16.77
2018-07-06T05:41:03.538Z,16.76
2018-07-06T05:44:14.425Z,16.73
2018-07-06T05:47:01.069Z,16.77
2018-07-06T05:49:47.805Z,16.78
2018-07-06T05:52:34.295Z,16.83
2018-07-06T05:55:21.109Z,16.74
2018-07-06T05:58:08.087Z,16.67
2018-07-06T06:00:54.649Z,16.72
2018-07-06T06:03:41.347Z,16.62
2018-07-06T06:06:27.845Z,16.72
2018-07-06T06:08:55.849Z,16.77
2018-07-06T06:11:25.747Z,16.75
2018-07-06T06:13:55.573Z,16.76
2018-07-06T06:16:25.395Z,16.77
2018-07-06T06:18:55.213Z,16.89
2018-07-06T06:21:25.165Z,16.98
2018-07-06T06:23:54.998Z,17.07
2018-07-06T06:26:30.234Z,17.01
2018-07-06T06:29:00.599Z,16.99
2018-07-06T06:31:30.916Z,17.06
2018-07-06T06:34:03.157Z,17.22
2018-07-06T06:36:33.541Z,17.23
2018-07-06T06:39:04.843Z,17.28
2018-07-06T06:41:34.964Z,17.35
2018-07-06T06:44:05.177Z,17.27
2018-07-06T06:46:35.110Z,17.29
2018-07-06T06:49:05.387Z,17.27
2018-07-06T06:51:35.781Z,17.19
2018-07-06T06:54:05.671Z,17.13
2018-07-06T06:56:35.517Z,17.19
2018-07-06T06:59:05.547Z,17.06
2018-07-06T07:01:35.873Z,17.14
2018-07-06T07:04:06.175Z,17.25
2018-07-06T07:06:36.495Z,17.22
2018-07-06T07:09:06.846Z,17.20
2018-07-06T07:11:37.243Z,17.11
2018-07-06T07:14:07.219Z,17.03
2018-07-06T07:16:37.237Z,17.02
2018-07-06T07:19:07.053Z,16.90
2018-07-06T07:21:37.361Z,16.92
2018-07-06T07:24:07.218Z,16.83
2018-07-06T07:26:37.157Z,16.89
2018-07-06T07:29:07.065Z,16.86
2018-07-06T07:31:36.969Z,16.94
2018-07-06T07:34:07.214Z,16.96
2018-07-06T07:36:37.082Z,17.00
2018-07-06T07:39:07.251Z,17.11
2018-07-06T07:41:37.179Z,17.13
2018-07-06T07:44:07.729Z,17.10
2018-07-06T07:46:37.918Z,17.09
2018-07-06T07:49:07.865Z,17.09
2018-07-06T07:52:06.520Z,17.03
2018-07-06T07:54:55.502Z,17.08
2018-07-06T07:57:25.454Z,17.15
2018-07-06T07:59:56.803Z,17.14
2018-07-06T08:02:26.845Z,17.16
2018-07-06T08:04:56.806Z,17.26
2018-07-06T08:07:27.234Z,17.33
2018-07-06T08:09:57.315Z,17.37
2018-07-06T08:12:27.424Z,17.48
2018-07-06T08:14:57.711Z,17.42
2018-07-06T08:17:27.620Z,17.32
2018-07-06T08:19:57.573Z,17.26
2018-07-06T08:22:27.414Z,17.35
2018-07-06T08:24:57.431Z,17.39
2018-07-06T08:27:27.376Z,17.28
2018-07-06T08:29:57.240Z,17.41
2018-07-06T08:32:27.117Z,17.42
2018-07-06T08:35:13.708Z,17.34
2018-07-06T08:38:05.783Z,17.35
2018-07-06T08:40:36.063Z,17.26
2018-07-06T08:43:06.796Z,17.26
2018-07-06T08:45:36.811Z,17.30
2018-07-06T08:48:06.780Z,17.37
2018-07-06T08:57:49.525Z,17.47
2018-07-06T09:00:19.559Z,17.49
2018-07-06T09:02:49.461Z,17.72
2018-07-06T09:05:19.345Z,17.75
2018-07-06T09:07:49.253Z,17.90
2018-07-06T09:10:19.223Z,18.22
2018-07-06T09:12:49.122Z,18.37
2018-07-06T09:15:18.617Z,18.59
2018-07-06T09:17:48.489Z,18.58
2018-07-06T09:20:18.459Z,18.75
2018-07-06T09:30:00.623Z,19.09
2018-07-06T09:32:30.499Z,19.22
2018-07-06T09:35:00.291Z,19.44
2018-07-06T09:37:30.742Z,19.63
2018-07-06T09:40:02.078Z,20.10
2018-07-06T09:42:33.508Z,20.38
2018-07-06T09:45:04.428Z,20.61
2018-07-06T09:47:34.793Z,20.83
2018-07-06T09:50:05.220Z,20.66
2018-07-06T09:52:35.674Z,20.52
2018-07-06T09:55:06.234Z,20.44
2018-07-06T09:57:36.626Z,20.29
2018-07-06T10:00:08.394Z,20.26
2018-07-06T10:02:38.872Z,20.12
2018-07-06T10:05:09.284Z,19.97
2018-07-06T10:07:39.915Z,19.59
2018-07-06T10:10:10.350Z,19.49
2018-07-06T10:12:40.981Z,19.43
2018-07-06T10:15:11.528Z,19.41
2018-07-06T10:17:41.944Z,19.47
2018-07-06T10:27:36.876Z,19.31
2018-07-06T10:30:21.062Z,19.27
2018-07-06T10:32:51.061Z,19.33
2018-07-06T10:35:21.476Z,19.32
2018-07-06T10:37:51.942Z,19.24
2018-07-06T10:40:22.958Z,19.29
2018-07-06T10:42:53.368Z,19.10
2018-07-06T10:45:23.248Z,19.21
2018-07-06T10:47:53.078Z,19.44
2018-07-06T10:50:23.500Z,19.74
2018-07-06T10:52:54.077Z,20.07
2018-07-06T10:55:24.466Z,20.30
2018-07-06T10:57:54.854Z,20.29
2018-07-06T11:00:25.326Z,20.09
2018-07-06T11:02:55.757Z,19.83
2018-07-06T11:05:26.415Z,20.00
2018-07-06T11:07:56.800Z,19.78
2018-07-06T11:10:27.884Z,19.62
2018-07-06T11:12:58.248Z,19.55
2018-07-06T11:15:28.673Z,19.50
2018-07-06T11:17:59.213Z,19.31
2018-07-06T11:20:29.738Z,19.31
2018-07-06T11:23:00.154Z,19.27
2018-07-06T11:25:30.632Z,19.33
2018-07-06T11:28:01.083Z,19.41
2018-07-06T11:31:15.274Z,19.48
2018-07-06T11:33:45.854Z,19.50
2018-07-06T11:36:16.240Z,19.47
2018-07-06T11:38:46.688Z,19.52
2018-07-06T11:41:17.160Z,19.52
2018-07-06T11:43:48.846Z,19.63
2018-07-06T11:46:19.362Z,19.73
2018-07-06T11:48:50.122Z,19.82
2018-07-06T11:51:20.562Z,19.89
2018-07-06T11:53:50.980Z,20.04
2018-07-06T11:56:21.569Z,19.96
2018-07-06T11:58:51.999Z,19.78
2018-07-06T12:01:22.517Z,19.64
2018-07-06T12:03:52.994Z,19.72
2018-07-06T12:06:23.598Z,19.63
2018-07-06T12:08:54.618Z,19.53
2018-07-06T12:11:25.119Z,19.42
2018-07-06T12:13:55.602Z,19.33
2018-07-06T12:16:26.013Z,19.36
2018-07-06T12:18:56.772Z,19.36
2018-07-06T12:21:28.112Z,19.30
2018-07-06T12:23:58.666Z,19.39
2018-07-06T12:26:29.089Z,19.22
2018-07-06T12:28:59.588Z,19.25
2018-07-06T12:31:30.863Z,19.15
2018-07-06T12:34:00.885Z,19.13
2018-07-06T12:36:30.798Z,19.17
2018-07-06T12:39:01.195Z,19.29
2018-07-06T12:41:31.651Z,19.40
2018-07-06T12:44:02.252Z,19.54
2018-07-06T12:46:33.089Z,19.49
2018-07-06T12:49:03.583Z,19.57
2018-07-06T12:51:33.989Z,19.57
2018-07-06T12:54:04.899Z,19.66
2018-07-06T12:56:35.317Z,19.64
2018-07-06T12:59:06.667Z,19.76
2018-07-06T13:01:37.094Z,19.94
2018-07-06T13:04:07.925Z,19.76
2018-07-06T13:06:38.310Z,19.96
2018-07-06T13:09:09.033Z,19.99
2018-07-06T13:11:39.749Z,20.02
2018-07-06T13:14:10.127Z,20.13
2018-07-06T13:16:40.513Z,20.41
2018-07-06T13:19:10.891Z,20.45
2018-07-06T13:21:41.616Z,20.49
2018-07-06T13:24:11.992Z,20.50
2018-07-06T13:26:42.425Z,20.49
2018-07-06T13:29:12.788Z,20.51
2018-07-06T13:31:43.208Z,20.35
2018-07-06T13:34:13.867Z,20.12
2018-07-06T13:36:44.295Z,19.90
2018-07-06T13:39:15.031Z,19.70
2018-07-06T13:41:45.602Z,19.67
2018-07-06T13:44:16.203Z,19.75
2018-07-06T13:46:46.641Z,19.77
2018-07-06T13:49:18.231Z,19.79
2018-07-06T13:51:49.227Z,19.96
2018-07-06T13:54:20.365Z,20.08
2018-07-06T13:56:50.702Z,20.20
2018-07-06T13:59:21.140Z,20.19
2018-07-06T14:01:51.645Z,20.39
2018-07-06T14:04:21.995Z,20.43
2018-07-06T14:06:52.495Z,20.60
2018-07-06T14:09:23.231Z,20.45
2018-07-06T14:11:53.843Z,20.29
2018-07-06T14:14:24.421Z,20.54
2018-07-06T14:16:55.033Z,20.63
2018-07-06T14:19:25.460Z,20.49
2018-07-06T14:21:56.501Z,20.39
2018-07-06T14:24:26.969Z,20.31
2018-07-06T14:26:57.356Z,20.16
2018-07-06T14:29:27.914Z,19.96
2018-07-06T14:31:59.673Z,19.89
2018-07-06T14:34:30.323Z,19.87
2018-07-06T14:37:00.889Z,19.81
2018-07-06T14:39:31.317Z,19.76
2018-07-06T14:42:01.951Z,19.84
2018-07-06T14:44:32.352Z,20.00
2018-07-06T14:47:03.151Z,20.11
2018-07-06T14:49:33.575Z,20.19
2018-07-06T14:52:03.949Z,20.25
2018-07-06T14:54:34.635Z,20.22
2018-07-06T14:57:05.202Z,20.30
2018-07-06T14:59:35.615Z,20.31
2018-07-06T15:02:06.275Z,20.09
2018-07-06T15:04:37.084Z,19.86
2018-07-06T15:07:07.612Z,19.84
2018-07-06T15:09:38.026Z,19.81
2018-07-06T15:12:08.468Z,19.87
2018-07-06T15:14:38.893Z,19.70
2018-07-06T15:17:09.348Z,19.76
2018-07-06T15:19:40.083Z,19.62
2018-07-06T15:22:10.546Z,19.74
2018-07-06T15:24:40.964Z,19.78
2018-07-06T15:27:11.473Z,19.67
2018-07-06T15:29:41.833Z,19.74
2018-07-06T15:32:12.309Z,19.72
2018-07-06T15:34:42.671Z,19.71
2018-07-06T15:37:13.068Z,19.66
2018-07-06T15:39:43.693Z,19.66
2018-07-06T15:42:14.019Z,19.75
2018-07-06T15:44:44.428Z,19.84
2018-07-06T15:47:14.899Z,19.77
2018-07-06T15:49:45.352Z,19.83
2018-07-06T15:52:16.044Z,19.90
2018-07-06T15:54:46.851Z,20.02
2018-07-06T15:57:18.557Z,20.00
2018-07-06T15:59:49.086Z,20.01
2018-07-06T16:02:20.391Z,19.95
2018-07-06T16:04:50.824Z,20.07
2018-07-06T16:07:21.441Z,20.07
2018-07-06T16:09:51.844Z,20.16
2018-07-06T16:12:22.200Z,20.19
2018-07-06T16:14:52.575Z,20.16
2018-07-06T16:17:22.581Z,20.19
2018-07-06T16:23:29.959Z,20.27
2018-07-06T16:26:00.401Z,20.35
2018-07-06T16:28:30.827Z,20.42
2018-07-06T16:31:01.388Z,20.33
2018-07-06T16:33:31.764Z,20.27
2018-07-06T16:39:38.393Z,20.45
2018-07-06T16:42:08.895Z,20.43
2018-07-06T16:44:39.287Z,20.34
2018-07-06T16:47:09.803Z,20.29
2018-07-06T16:49:40.243Z,20.25
2018-07-06T16:52:11.321Z,20.27
2018-07-06T16:54:42.242Z,20.40
2018-07-06T16:57:12.624Z,20.57
2018-07-06T16:59:43.206Z,20.73
2018-07-06T17:02:13.820Z,20.73
2018-07-06T17:04:44.155Z,20.84
2018-07-06T17:07:14.506Z,21.00
2018-07-06T17:09:44.951Z,20.97
2018-07-06T17:12:15.470Z,21.03
2018-07-06T17:14:46.170Z,20.86
2018-07-06T17:17:16.466Z,20.71
2018-07-06T17:19:46.831Z,20.74
2018-07-06T17:22:18.215Z,20.80
2018-07-06T17:24:48.544Z,20.86
2018-07-06T17:27:19.174Z,20.71
2018-07-06T17:29:50.166Z,20.93
2018-07-06T17:32:21.440Z,21.06
2018-07-06T17:34:51.939Z,21.03
2018-07-06T17:37:22.308Z,21.04
2018-07-06T17:39:53.536Z,20.90
2018-07-06T17:42:24.566Z,20.86
2018-07-06T17:44:55.010Z,20.82
2018-07-06T17:47:25.888Z,20.31
2018-07-06T17:49:56.272Z,20.26
2018-07-06T17:52:26.680Z,20.25
2018-07-06T17:55:02.698Z,20.16
2018-07-06T17:57:33.048Z,19.79
2018-07-06T18:00:04.036Z,19.49
2018-07-06T18:02:34.396Z,19.36
2018-07-06T18:05:04.810Z,19.45
2018-07-06T18:07:35.386Z,19.47
2018-07-06T18:10:05.814Z,19.48
2018-07-06T18:12:36.232Z,19.64
2018-07-06T18:15:07.518Z,19.73
2018-07-06T18:17:38.625Z,19.84
2018-07-06T18:20:09.281Z,19.85
2018-07-06T18:22:39.692Z,19.86
2018-07-06T18:25:10.068Z,19.90
2018-07-06T18:27:40.086Z,19.99
2018-07-06T18:30:10.781Z,19.98
2018-07-06T18:32:41.308Z,19.81
2018-07-06T18:35:11.828Z,19.55
2018-07-06T18:37:42.306Z,19.38
2018-07-06T18:40:12.988Z,19.10
2018-07-06T18:42:43.327Z,18.96
2018-07-06T18:45:13.390Z,18.89
2018-07-06T18:47:43.154Z,18.73
2018-07-06T18:50:12.953Z,18.73
2018-07-06T18:52:44.142Z,18.68
2018-07-06T18:55:15.599Z,18.66
2018-07-06T18:57:45.996Z,18.58
2018-07-06T19:00:17.424Z,18.56
2018-07-06T19:02:46.889Z,18.45
2018-07-06T19:05:19.196Z,18.36
2018-07-06T19:07:49.974Z,18.31
2018-07-06T19:10:20.143Z,18.09
2018-07-06T19:12:50.433Z,18.08
2018-07-06T19:15:20.248Z,18.08
2018-07-06T19:17:50.177Z,18.09
2018-07-06T19:20:20.070Z,17.92
2018-07-06T19:22:49.882Z,17.86
2018-07-06T19:25:19.788Z,17.92
2018-07-06T19:27:49.626Z,17.89
2018-07-06T19:30:19.462Z,17.90
2018-07-06T19:32:49.226Z,17.96
2018-07-06T19:35:19.082Z,18.05
2018-07-06T19:37:48.880Z,18.02
2018-07-06T19:40:19.244Z,18.02
2018-07-06T19:42:49.052Z,17.99
2018-07-06T19:45:18.824Z,18.03
2018-07-06T19:47:48.868Z,18.08
2018-07-06T19:50:18.736Z,18.09
2018-07-06T19:52:48.618Z,18.14
2018-07-06T19:55:18.801Z,18.20
2018-07-06T19:57:48.737Z,18.17
2018-07-06T20:00:18.614Z,18.25
2018-07-06T20:02:48.464Z,18.28
2018-07-06T20:05:18.352Z,18.26
2018-07-06T20:07:48.328Z,18.21
2018-07-06T20:10:18.298Z,18.21
2018-07-06T20:12:48.610Z,18.22
2018-07-06T20:15:19.832Z,18.13
2018-07-06T20:17:54.039Z,18.17
2018-07-06T20:20:24.669Z,18.28
2018-07-06T20:22:55.240Z,18.26
2018-07-06T20:25:25.240Z,18.18
2018-07-06T20:27:55.632Z,18.31
2018-07-06T20:30:25.441Z,18.22
2018-07-06T20:32:55.298Z,18.10
2018-07-06T20:35:25.418Z,18.11
2018-07-06T20:37:55.762Z,18.11
2018-07-06T20:40:25.588Z,18.05
2018-07-06T20:42:55.353Z,18.00
2018-07-06T20:45:25.130Z,18.03
2018-07-06T20:47:55.271Z,17.88
2018-07-06T20:50:25.107Z,17.89
2018-07-06T20:52:56.107Z,17.90
2018-07-06T20:55:26.552Z,17.82
2018-07-06T20:57:56.409Z,17.78
2018-07-06T21:00:26.362Z,17.77
2018-07-06T21:02:56.247Z,17.65
2018-07-06T21:05:26.025Z,17.56
2018-07-06T21:07:56.982Z,17.50
2018-07-06T21:10:26.887Z,17.49
2018-07-06T21:12:56.927Z,17.58
2018-07-06T21:15:26.801Z,17.54
2018-07-06T21:17:56.691Z,17.63
2018-07-06T21:20:26.709Z,17.46
2018-07-06T21:22:56.543Z,17.25
2018-07-06T21:25:26.693Z,17.27
2018-07-06T21:27:56.598Z,17.31
2018-07-06T21:30:26.507Z,17.32
2018-07-06T21:36:33.308Z,17.43
2018-07-06T21:39:03.337Z,17.35
2018-07-06T21:41:33.315Z,17.30
2018-07-06T21:44:03.201Z,17.32
2018-07-06T21:46:33.442Z,17.39
2018-07-06T21:49:03.463Z,17.40
2018-07-06T21:51:33.411Z,17.41
2018-07-06T21:54:03.314Z,16.97
2018-07-06T21:56:33.159Z,16.48
2018-07-06T21:59:03.297Z,16.00
2018-07-06T22:01:33.471Z,15.72
2018-07-06T22:04:03.369Z,15.57
2018-07-06T22:06:33.195Z,15.59
2018-07-06T22:09:03.115Z,15.59
2018-07-06T22:11:33.349Z,15.61
2018-07-06T22:14:03.307Z,15.66
2018-07-06T22:16:33.558Z,15.74
2018-07-06T22:19:03.753Z,15.65
2018-07-06T22:21:33.699Z,15.69
2018-07-06T22:24:03.557Z,15.79
2018-07-06T22:26:33.330Z,15.71
2018-07-06T22:29:03.163Z,15.67
2018-07-06T22:31:32.966Z,15.64
2018-07-06T22:34:02.768Z,15.69
2018-07-06T22:36:32.853Z,15.78
2018-07-06T22:39:02.743Z,15.89
2018-07-06T22:41:32.590Z,16.05
2018-07-06T22:44:02.643Z,16.27
2018-07-06T22:46:32.439Z,16.40
2018-07-06T22:49:02.566Z,16.52
2018-07-06T22:51:32.893Z,16.61
2018-07-06T22:54:02.735Z,16.64
2018-07-06T22:56:34.349Z,16.65
2018-07-06T22:59:04.475Z,16.52
2018-07-06T23:01:34.467Z,16.63
2018-07-06T23:04:04.265Z,16.73
2018-07-06T23:06:34.203Z,16.83
2018-07-06T23:09:04.527Z,16.81
2018-07-06T23:11:34.387Z,16.82
2018-07-06T23:14:04.721Z,16.59
2018-07-06T23:20:10.491Z,16.08
2018-07-06T23:23:08.174Z,16.00
2018-07-06T23:25:48.049Z,15.96
2018-07-06T23:28:18.211Z,15.97
2018-07-06T23:34:24.964Z,16.03
2018-07-06T23:36:55.183Z,16.09
2018-07-06T23:39:25.051Z,16.38
2018-07-06T23:41:54.881Z,16.49
2018-07-06T23:44:24.766Z,16.39
2018-07-06T23:46:54.837Z,16.28
2018-07-06T23:49:24.713Z,16.44
2018-07-06T23:51:54.672Z,16.51
2018-07-06T23:54:24.597Z,16.64
2018-07-06T23:56:54.677Z,16.78
2018-07-06T23:59:24.469Z,16.72
